createdAt,value
2018-10-07T00:00:23.824Z,10.50
2018-10-07T00:02:52.235Z,10.20
2018-10-07T00:05:20.449Z,7.67
2018-10-07T00:07:49.780Z,8.90
2018-10-07T00:10:18.421Z,6.43
2018-10-07T00:12:46.634Z,11.83
2018-10-07T00:15:15.016Z,8.70
2018-10-07T00:17:43.217Z,5.87
2018-10-07T00:20:12.449Z,7.30
2018-10-07T00:22:40.841Z,16.60
2018-10-07T00:25:09.489Z,21.17
2018-10-07T00:27:37.658Z,19.80
2018-10-07T00:30:06.085Z,25.43
2018-10-07T00:32:34.252Z,20.60
2018-10-07T00:35:02.689Z,14.33
2018-10-07T00:37:30.868Z,12.33
2018-10-07T00:39:59.115Z,18.93
2018-10-07T00:42:27.270Z,13.10
2018-10-07T00:44:55.465Z,19.10
2018-10-07T00:47:23.651Z,14.40
2018-10-07T00:49:51.853Z,11.63
2018-10-07T00:52:20.261Z,10.13
2018-10-07T00:54:48.497Z,8.70
2018-10-07T00:57:16.664Z,9.33
2018-10-07T00:59:44.882Z,12.50
2018-10-07T01:02:13.069Z,25.03
2018-10-07T01:04:41.488Z,14.03
2018-10-07T01:07:09.722Z,20.70
2018-10-07T01:09:37.914Z,33.27
2018-10-07T01:12:06.127Z,19.87
2018-10-07T01:14:34.333Z,28.83
2018-10-07T01:17:02.550Z,32.97
2018-10-07T01:19:33.721Z,35.77
2018-10-07T01:22:02.001Z,29.73
2018-10-07T01:24:30.662Z,40.77
2018-10-07T01:26:58.898Z,40.67
2018-10-07T01:29:27.081Z,37.33
2018-10-07T01:31:55.283Z,40.93
2018-10-07T01:34:23.468Z,40.20
2018-10-07T01:36:51.673Z,41.03
2018-10-07T01:39:19.855Z,31.17
2018-10-07T01:41:48.077Z,29.30
2018-10-07T01:44:16.248Z,25.87
2018-10-07T01:46:44.452Z,24.27
2018-10-07T01:49:12.873Z,40.53
2018-10-07T01:51:41.079Z,26.97
2018-10-07T01:54:09.249Z,40.77
2018-10-07T01:56:37.449Z,53.77
2018-10-07T01:59:05.654Z,55.10
2018-10-07T02:01:33.912Z,40.03
2018-10-07T02:04:02.090Z,46.60
2018-10-07T02:06:30.286Z,46.13
2018-10-07T02:08:58.507Z,46.50
2018-10-07T02:11:26.717Z,55.00
2018-10-07T02:13:55.013Z,60.23
2018-10-07T02:16:23.306Z,50.10
2018-10-07T02:18:51.477Z,68.00
2018-10-07T02:21:19.682Z,58.07
2018-10-07T02:24:18.718Z,58.80
2018-10-07T02:26:46.956Z,58.67
2018-10-07T02:29:15.132Z,61.40
2018-10-07T02:31:43.325Z,55.10
2018-10-07T02:34:11.495Z,66.93
2018-10-07T02:36:39.689Z,65.60
2018-10-07T02:39:08.797Z,80.67
2018-10-07T02:41:37.009Z,78.97
2018-10-07T02:44:05.180Z,63.77
2018-10-07T02:46:33.457Z,83.73
2018-10-07T02:49:01.645Z,74.97
2018-10-07T02:51:29.928Z,72.43
2018-10-07T02:53:58.112Z,69.43
2018-10-07T02:56:26.340Z,82.67
2018-10-07T02:58:54.533Z,82.20
2018-10-07T03:01:22.721Z,70.70
2018-10-07T03:03:50.896Z,84.87
2018-10-07T03:06:19.089Z,72.97
2018-10-07T03:08:47.297Z,86.30
2018-10-07T03:11:15.612Z,72.17
2018-10-07T03:14:14.790Z,81.33
2018-10-07T03:16:42.981Z,74.27
2018-10-07T03:19:11.164Z,72.37
2018-10-07T03:21:39.372Z,61.37
2018-10-07T03:24:07.598Z,75.93
2018-10-07T03:26:35.825Z,81.03
2018-10-07T03:29:04.453Z,68.03
2018-10-07T03:31:32.650Z,71.43
2018-10-07T03:34:00.818Z,71.00
2018-10-07T03:36:28.995Z,73.77
2018-10-07T03:38:57.241Z,84.23
2018-10-07T03:41:25.420Z,72.97
2018-10-07T03:43:54.053Z,86.43
2018-10-07T03:46:22.229Z,88.07
2018-10-07T03:48:50.439Z,67.27
2018-10-07T03:51:18.631Z,75.00
2018-10-07T03:53:46.859Z,80.73
2018-10-07T03:59:07.949Z,83.77
2018-10-07T04:01:36.190Z,71.13
2018-10-07T04:04:04.391Z,69.50
2018-10-07T04:06:32.594Z,87.27
2018-10-07T04:09:00.799Z,73.50
2018-10-07T04:11:29.113Z,65.83
2018-10-07T04:13:57.321Z,62.43
2018-10-07T04:16:25.548Z,60.10
2018-10-07T04:18:53.824Z,58.87
2018-10-07T04:21:22.008Z,61.80
2018-10-07T04:23:50.219Z,57.97
2018-10-07T04:26:18.426Z,58.33
2018-10-07T04:28:46.682Z,58.17
2018-10-07T04:31:14.881Z,49.77
2018-10-07T04:33:43.095Z,45.80
2018-10-07T04:36:11.285Z,41.87
2018-10-07T04:38:40.001Z,54.87
2018-10-07T04:41:09.216Z,59.67
2018-10-07T04:43:37.410Z,51.67
2018-10-07T04:46:05.664Z,50.07
2018-10-07T04:48:33.883Z,52.00
2018-10-07T04:51:02.120Z,36.83
2018-10-07T04:53:30.319Z,38.37
2018-10-07T04:55:58.509Z,33.30
2018-10-07T04:58:26.722Z,27.67
2018-10-07T05:00:55.934Z,25.73
2018-10-07T05:03:24.136Z,20.93
2018-10-07T05:05:52.490Z,24.63
2018-10-07T05:08:23.724Z,21.57
2018-10-07T05:10:53.200Z,21.67
2018-10-07T05:13:27.014Z,22.50
2018-10-07T05:15:57.085Z,19.80
2018-10-07T05:18:25.425Z,15.87
2018-10-07T05:20:54.260Z,12.67
2018-10-07T05:23:22.732Z,13.93
2018-10-07T05:25:51.057Z,10.20
2018-10-07T05:28:19.394Z,11.43
2018-10-07T05:30:47.610Z,9.17
2018-10-07T05:33:17.016Z,9.03
2018-10-07T05:35:45.224Z,10.10
2018-10-07T05:38:13.423Z,10.30
2018-10-07T05:40:41.638Z,13.07
2018-10-07T05:43:11.841Z,12.40
2018-10-07T05:45:40.065Z,12.70
2018-10-07T05:48:09.312Z,14.27
2018-10-07T05:50:37.517Z,14.23
2018-10-07T05:53:05.729Z,15.33
2018-10-07T05:55:34.043Z,12.70
2018-10-07T05:58:04.341Z,15.53
2018-10-07T06:00:33.605Z,12.80
2018-10-07T06:03:10.385Z,14.03
2018-10-07T06:05:39.402Z,14.77
2018-10-07T06:08:07.681Z,12.83
2018-10-07T06:10:36.062Z,13.43
2018-10-07T06:13:04.329Z,12.93
2018-10-07T06:15:34.812Z,16.37
2018-10-07T06:18:03.081Z,15.60
2018-10-07T06:20:31.577Z,15.13
2018-10-07T06:22:59.784Z,17.80
2018-10-07T06:25:28.369Z,15.73
2018-10-07T06:27:56.981Z,18.73
2018-10-07T06:30:25.257Z,15.70
2018-10-07T06:32:53.721Z,10.70
2018-10-07T06:35:22.744Z,15.17
2018-10-07T06:37:50.992Z,18.60
2018-10-07T06:40:19.204Z,16.20
2018-10-07T06:42:47.413Z,21.47
2018-10-07T06:45:15.633Z,16.40
2018-10-07T06:47:43.842Z,19.50
2018-10-07T06:50:12.099Z,22.13
2018-10-07T06:52:40.292Z,21.97
2018-10-07T06:55:08.498Z,19.90
2018-10-07T06:57:36.680Z,18.93
2018-10-07T07:00:05.502Z,19.27
2018-10-07T07:02:33.732Z,22.13
2018-10-07T07:05:01.955Z,19.23
2018-10-07T07:07:30.149Z,15.53
2018-10-07T07:09:58.593Z,19.43
2018-10-07T07:12:26.801Z,22.77
2018-10-07T07:14:55.008Z,27.03
2018-10-07T07:17:23.204Z,24.17
2018-10-07T07:19:51.464Z,30.90
2018-10-07T07:22:19.632Z,27.00
2018-10-07T07:24:47.882Z,25.60
2018-10-07T07:27:16.087Z,27.07
2018-10-07T07:29:44.323Z,25.27
2018-10-07T07:32:12.522Z,23.47
2018-10-07T07:34:40.742Z,27.37
2018-10-07T07:37:12.296Z,25.70
2018-10-07T07:39:40.501Z,22.23
2018-10-07T07:42:10.524Z,23.33
2018-10-07T07:44:41.037Z,20.53
2018-10-07T07:47:09.243Z,20.33
2018-10-07T07:49:37.429Z,19.57
2018-10-07T07:52:05.662Z,19.13
2018-10-07T07:54:33.879Z,17.43
2018-10-07T07:57:04.104Z,19.83
2018-10-07T07:59:32.313Z,16.47
2018-10-07T08:02:00.569Z,17.37
2018-10-07T08:04:28.776Z,13.10
2018-10-07T08:06:57.067Z,16.20
2018-10-07T08:09:25.281Z,16.33
2018-10-07T08:11:53.514Z,15.97
2018-10-07T08:14:21.709Z,15.27
2018-10-07T08:16:53.044Z,12.13
2018-10-07T08:19:21.237Z,12.67
2018-10-07T08:21:49.713Z,13.27
2018-10-07T08:24:19.490Z,11.07
2018-10-07T08:26:47.716Z,10.33
2018-10-07T08:29:16.173Z,10.00
2018-10-07T08:31:44.955Z,9.27
2018-10-07T08:34:13.194Z,9.27
2018-10-07T08:36:41.441Z,10.33
2018-10-07T08:39:10.132Z,10.13
2018-10-07T08:41:38.720Z,10.33
2018-10-07T08:44:06.993Z,9.87
2018-10-07T08:46:35.223Z,6.93
2018-10-07T08:49:03.666Z,8.57
2018-10-07T08:51:31.972Z,6.30
2018-10-07T08:54:00.175Z,4.80
2018-10-07T08:56:29.285Z,4.20
2018-10-07T08:58:58.481Z,4.03
2018-10-07T09:01:26.720Z,3.57
2018-10-07T09:03:54.920Z,3.60
2018-10-07T09:06:23.138Z,3.30
2018-10-07T09:08:51.355Z,4.40
2018-10-07T09:11:19.764Z,2.37
2018-10-07T09:13:47.956Z,4.87
2018-10-07T09:16:16.165Z,4.70
2018-10-07T09:18:44.353Z,4.50
2018-10-07T09:21:12.562Z,5.90
2018-10-07T09:23:40.850Z,4.67
2018-10-07T09:26:09.125Z,5.20
2018-10-07T09:28:37.348Z,4.73
2018-10-07T09:31:05.709Z,6.90
2018-10-07T09:33:33.901Z,5.80
2018-10-07T09:36:02.089Z,5.93
2018-10-07T09:38:30.292Z,5.23
2018-10-07T09:40:58.489Z,4.33
2018-10-07T09:43:26.698Z,3.63
2018-10-07T09:45:54.885Z,5.03
2018-10-07T09:48:23.274Z,4.30
2018-10-07T09:50:51.463Z,5.03
2018-10-07T09:53:19.678Z,6.87
2018-10-07T09:55:48.066Z,7.73
2018-10-07T09:58:16.312Z,6.50
2018-10-07T10:00:44.525Z,11.70
2018-10-07T10:03:12.980Z,8.43
2018-10-07T10:05:41.218Z,8.33
2018-10-07T10:08:09.664Z,9.60
2018-10-07T10:10:37.874Z,7.37
2018-10-07T10:13:06.097Z,9.27
2018-10-07T10:15:34.366Z,7.67
2018-10-07T10:18:05.780Z,10.97
2018-10-07T10:20:57.157Z,7.87
2018-10-07T10:25:37.408Z,10.00
2018-10-07T10:28:19.300Z,10.53
2018-10-07T10:31:01.870Z,10.37
2018-10-07T10:33:32.329Z,9.53
2018-10-07T10:37:08.512Z,11.57
2018-10-07T10:39:52.347Z,9.40
2018-10-07T10:42:24.347Z,9.87
2018-10-07T10:44:55.130Z,8.13
2018-10-07T10:47:33.947Z,8.77
2018-10-07T10:50:15.931Z,7.90
2018-10-07T10:52:51.941Z,8.53
2018-10-07T10:55:26.813Z,6.23
2018-10-07T10:57:56.118Z,6.60
2018-10-07T11:00:27.722Z,8.97
2018-10-07T11:03:06.362Z,6.33
2018-10-07T11:05:40.210Z,6.07
2018-10-07T11:09:19.587Z,8.33
2018-10-07T11:11:57.763Z,6.23
2018-10-07T11:14:36.244Z,8.20
2018-10-07T11:19:19.199Z,7.33
2018-10-07T11:21:52.537Z,7.53
2018-10-07T11:24:27.486Z,9.27
2018-10-07T11:27:10.388Z,9.17
2018-10-07T11:31:58.129Z,8.47
2018-10-07T11:36:49.193Z,6.40
2018-10-07T11:39:30.576Z,6.70
2018-10-07T11:42:09.458Z,5.83
2018-10-07T11:44:58.900Z,4.97
2018-10-07T11:47:38.290Z,3.83
2018-10-07T11:50:10.505Z,5.00
2018-10-07T11:52:47.210Z,4.20
2018-10-07T11:55:15.437Z,5.40
2018-10-07T11:57:43.621Z,4.20
2018-10-07T12:00:11.997Z,4.10
2018-10-07T12:02:40.282Z,3.63
2018-10-07T12:05:08.425Z,4.97
2018-10-07T12:07:36.632Z,4.07
2018-10-07T12:10:05.042Z,3.90
2018-10-07T12:12:33.161Z,4.30
2018-10-07T12:15:01.442Z,3.53
2018-10-07T12:17:29.653Z,3.13
2018-10-07T12:19:58.340Z,4.13
2018-10-07T12:22:26.932Z,3.47
2018-10-07T12:24:55.298Z,3.10
2018-10-07T12:27:23.568Z,4.53
2018-10-07T12:29:51.861Z,3.73
2018-10-07T12:32:20.124Z,3.17
2018-10-07T12:34:48.465Z,4.63
2018-10-07T12:37:17.012Z,2.53
2018-10-07T12:39:45.384Z,3.27
2018-10-07T12:42:13.631Z,3.13
2018-10-07T12:44:41.837Z,3.17
2018-10-07T12:47:10.020Z,3.33
2018-10-07T12:49:38.208Z,3.70
2018-10-07T12:52:06.432Z,3.20
2018-10-07T12:54:34.686Z,3.10
2018-10-07T12:57:02.797Z,3.10
2018-10-07T12:59:30.983Z,3.97
2018-10-07T13:01:59.261Z,2.60
2018-10-07T13:04:27.507Z,3.37
2018-10-07T13:06:55.660Z,3.70
2018-10-07T13:09:23.881Z,3.40
2018-10-07T13:11:52.041Z,3.30
2018-10-07T13:14:20.249Z,2.80
2018-10-07T13:16:48.651Z,4.83
2018-10-07T13:19:16.870Z,4.40
2018-10-07T13:21:45.043Z,3.60
2018-10-07T13:24:13.204Z,4.33
2018-10-07T13:26:41.411Z,3.70
2018-10-07T13:29:09.684Z,2.90
2018-10-07T13:31:37.884Z,3.70
2018-10-07T13:34:06.058Z,4.33
2018-10-07T13:36:34.252Z,3.77
2018-10-07T13:39:02.423Z,3.43
2018-10-07T13:41:31.046Z,3.20
2018-10-07T13:43:59.620Z,3.20
2018-10-07T13:46:27.812Z,3.37
2018-10-07T13:48:56.126Z,4.87
2018-10-07T13:51:24.330Z,3.50
2018-10-07T13:53:52.542Z,3.03
2018-10-07T13:56:20.768Z,3.50
2018-10-07T13:58:48.950Z,4.07
2018-10-07T14:01:17.409Z,3.53
2018-10-07T14:03:45.615Z,2.97
2018-10-07T14:06:13.793Z,2.37
2018-10-07T14:08:41.963Z,2.30
2018-10-07T14:11:10.164Z,3.67
2018-10-07T14:13:38.333Z,2.73
2018-10-07T14:16:06.749Z,2.67
2018-10-07T14:18:34.908Z,2.13
2018-10-07T14:21:03.113Z,2.90
2018-10-07T14:23:31.293Z,2.63
2018-10-07T14:25:59.481Z,3.40
2018-10-07T14:28:27.856Z,3.47
2018-10-07T14:30:56.068Z,3.20
2018-10-07T14:33:24.240Z,2.57
2018-10-07T14:35:52.436Z,3.23
2018-10-07T14:38:20.613Z,3.47
2018-10-07T14:40:48.813Z,2.40
2018-10-07T14:43:16.982Z,3.43
2018-10-07T14:45:45.178Z,2.10
2018-10-07T14:48:13.369Z,3.57
2018-10-07T14:50:41.561Z,2.57
2018-10-07T14:53:09.729Z,2.23
2018-10-07T14:55:37.921Z,2.67
2018-10-07T14:58:06.440Z,2.57
2018-10-07T15:00:34.863Z,2.50
2018-10-07T15:03:03.041Z,3.90
2018-10-07T15:05:31.228Z,2.30
2018-10-07T15:07:59.418Z,3.67
2018-10-07T15:10:27.600Z,3.07
2018-10-07T15:12:55.828Z,2.53
2018-10-07T15:15:24.014Z,2.83
2018-10-07T15:17:52.225Z,2.10
2018-10-07T15:20:20.388Z,2.53
2018-10-07T15:22:48.653Z,2.27
2018-10-07T15:25:16.820Z,2.70
2018-10-07T15:27:45.032Z,2.13
2018-10-07T15:30:13.212Z,2.00
2018-10-07T15:32:41.405Z,1.40
2018-10-07T15:35:09.590Z,1.70
2018-10-07T15:37:38.225Z,1.60
2018-10-07T15:40:06.598Z,1.80
2018-10-07T15:42:34.793Z,2.03
2018-10-07T15:45:02.965Z,1.13
2018-10-07T15:47:31.209Z,1.83
2018-10-07T15:49:59.835Z,1.40
2018-10-07T15:52:28.145Z,1.53
2018-10-07T15:54:56.916Z,2.03
2018-10-07T15:57:25.166Z,1.20
2018-10-07T15:59:53.329Z,1.20
2018-10-07T16:02:21.678Z,1.07
2018-10-07T16:04:49.849Z,1.63
2018-10-07T16:07:18.076Z,1.10
2018-10-07T16:09:46.280Z,1.10
2018-10-07T16:12:14.432Z,1.00
2018-10-07T16:14:43.059Z,1.10
2018-10-07T16:17:11.251Z,0.90
2018-10-07T16:19:39.414Z,0.93
2018-10-07T16:22:07.613Z,1.57
2018-10-07T16:24:35.850Z,1.10
2018-10-07T16:27:04.765Z,1.00
2018-10-07T16:29:32.935Z,0.80
2018-10-07T16:32:01.150Z,1.13
2018-10-07T16:34:29.304Z,0.87
2018-10-07T16:36:57.500Z,1.10
2018-10-07T16:39:26.133Z,0.60
2018-10-07T16:41:54.312Z,0.83
2018-10-07T16:44:22.494Z,1.87
2018-10-07T16:46:50.665Z,0.40
2018-10-07T16:49:20.313Z,0.80
2018-10-07T16:51:48.487Z,0.70
2018-10-07T16:54:16.685Z,0.80
2018-10-07T16:56:44.889Z,0.50
2018-10-07T16:59:13.078Z,1.10
2018-10-07T17:01:41.240Z,2.17
2018-10-07T17:04:09.501Z,0.90
2018-10-07T17:06:37.592Z,1.20
2018-10-07T17:09:07.213Z,0.67
2018-10-07T17:11:35.376Z,1.27
2018-10-07T17:14:03.578Z,0.97
2018-10-07T17:16:31.759Z,0.73
2018-10-07T17:18:59.940Z,0.93
2018-10-07T17:21:28.121Z,0.80
2018-10-07T17:23:56.358Z,1.00
2018-10-07T17:26:24.529Z,0.90
2018-10-07T17:28:52.760Z,1.00
2018-10-07T17:31:20.926Z,0.80
2018-10-07T17:33:49.119Z,1.77
2018-10-07T17:36:17.289Z,0.80
2018-10-07T17:38:45.488Z,0.70
2018-10-07T17:41:13.670Z,1.20
2018-10-07T17:43:41.880Z,0.70
2018-10-07T17:46:10.048Z,0.93
2018-10-07T17:48:38.305Z,1.13
2018-10-07T17:51:06.414Z,0.70
2018-10-07T17:53:34.668Z,0.60
2018-10-07T17:56:03.085Z,1.00
2018-10-07T17:58:31.272Z,0.70
2018-10-07T18:00:59.449Z,0.77
2018-10-07T18:03:27.656Z,0.90
2018-10-07T18:05:55.825Z,0.97
2018-10-07T18:08:24.028Z,1.00
2018-10-07T18:10:52.198Z,0.90
2018-10-07T18:13:20.402Z,0.60
2018-10-07T18:15:48.581Z,1.23
2018-10-07T18:18:16.765Z,0.60
2018-10-07T18:20:44.937Z,1.20
2018-10-07T18:23:13.139Z,2.00
2018-10-07T18:25:41.341Z,1.30
2018-10-07T18:28:09.545Z,1.03
2018-10-07T18:30:37.713Z,1.20
2018-10-07T18:33:05.908Z,1.00
2018-10-07T18:35:34.085Z,1.10
2018-10-07T18:38:02.496Z,1.13
2018-10-07T18:40:30.661Z,1.10
2018-10-07T18:42:58.920Z,0.80
2018-10-07T18:45:27.085Z,1.10
2018-10-07T18:47:55.244Z,0.93
2018-10-07T18:50:23.400Z,2.27
2018-10-07T18:52:51.802Z,0.90
2018-10-07T18:55:19.997Z,0.87
2018-10-07T19:00:21.849Z,1.83
2018-10-07T19:02:50.206Z,0.80
2018-10-07T19:05:18.550Z,1.10
2018-10-07T19:07:46.713Z,1.10
2018-10-07T19:10:15.134Z,1.20
2018-10-07T19:12:43.323Z,0.90
2018-10-07T19:15:11.617Z,1.10
2018-10-07T19:17:39.848Z,1.20
2018-10-07T19:20:08.072Z,1.10
2018-10-07T19:22:36.365Z,1.13
2018-10-07T19:25:04.581Z,0.97
2018-10-07T19:27:32.796Z,1.10
2018-10-07T19:30:01.005Z,1.00
2018-10-07T19:32:29.208Z,0.77
2018-10-07T19:34:57.409Z,1.27
2018-10-07T19:37:25.642Z,1.97
2018-10-07T19:39:53.786Z,1.33
2018-10-07T19:42:21.950Z,1.10
2018-10-07T19:44:50.210Z,1.17
2018-10-07T19:47:18.316Z,1.00
2018-10-07T19:49:46.541Z,1.17
2018-10-07T19:52:14.732Z,1.43
2018-10-07T19:54:43.214Z,1.93
2018-10-07T19:57:11.408Z,1.23
2018-10-07T19:59:39.618Z,2.63
2018-10-07T20:02:07.810Z,2.20
2018-10-07T20:04:36.032Z,2.00
2018-10-07T20:07:04.210Z,1.73
2018-10-07T20:09:32.440Z,1.73
2018-10-07T20:12:00.601Z,2.23
2018-10-07T20:14:28.815Z,1.23
2018-10-07T20:16:56.979Z,1.60
2018-10-07T20:19:25.239Z,1.60
2018-10-07T20:21:53.374Z,1.10
2018-10-07T20:24:21.547Z,2.33
2018-10-07T20:26:49.751Z,1.20
2018-10-07T20:29:17.925Z,1.00
2018-10-07T20:31:46.125Z,0.83
2018-10-07T20:34:14.313Z,1.03
2018-10-07T20:36:42.512Z,1.67
2018-10-07T20:39:11.101Z,4.93
2018-10-07T20:41:39.868Z,3.90
2018-10-07T20:44:08.428Z,6.33
2018-10-07T20:46:36.613Z,4.10
2018-10-07T20:49:04.921Z,3.13
2018-10-07T20:51:33.190Z,1.70
2018-10-07T20:54:01.369Z,1.60
2018-10-07T20:56:29.564Z,1.47
2018-10-07T20:58:57.925Z,1.20
2018-10-07T21:01:26.152Z,1.20
2018-10-07T21:03:54.319Z,1.20
2018-10-07T21:06:22.521Z,0.97
2018-10-07T21:08:50.688Z,1.13
2018-10-07T21:11:18.872Z,1.10
2018-10-07T21:13:47.045Z,1.40
2018-10-07T21:16:15.444Z,1.07
2018-10-07T21:18:43.608Z,0.90
2018-10-07T21:21:11.811Z,1.83
2018-10-07T21:23:40.020Z,1.20
2018-10-07T21:26:08.217Z,1.03
2018-10-07T21:28:36.382Z,1.50
2018-10-07T21:31:04.607Z,0.93
2018-10-07T21:33:32.793Z,0.80
2018-10-07T21:36:00.986Z,1.10
2018-10-07T21:38:29.152Z,1.10
2018-10-07T21:40:57.333Z,1.20
2018-10-07T21:43:25.819Z,1.93
2018-10-07T21:45:54.017Z,1.50
2018-10-07T21:48:22.194Z,1.20
2018-10-07T21:50:50.357Z,1.50
2018-10-07T21:53:18.578Z,1.13
2018-10-07T21:55:46.740Z,1.90
2018-10-07T21:58:14.931Z,1.40
2018-10-07T22:00:43.092Z,1.00
2018-10-07T22:03:11.288Z,1.10
2018-10-07T22:05:39.445Z,1.20
2018-10-07T22:08:07.642Z,1.43
2018-10-07T22:10:35.815Z,1.27
2018-10-07T22:13:04.001Z,1.00
2018-10-07T22:15:32.165Z,0.90
2018-10-07T22:18:00.354Z,1.67
2018-10-07T22:20:28.526Z,1.10
2018-10-07T22:22:56.744Z,1.20
2018-10-07T22:25:24.937Z,1.20
2018-10-07T22:27:53.159Z,1.30
2018-10-07T22:30:21.336Z,1.30
2018-10-07T22:32:49.560Z,1.53
2018-10-07T22:35:17.733Z,1.20
2018-10-07T22:37:45.919Z,1.10
2018-10-07T22:40:14.137Z,1.57
2018-10-07T22:42:42.327Z,1.20
2018-10-07T22:45:10.530Z,1.50
2018-10-07T22:47:38.726Z,1.20
2018-10-07T22:50:06.965Z,1.20
2018-10-07T22:52:35.169Z,1.63
2018-10-07T22:55:03.343Z,1.80
2018-10-07T22:57:31.525Z,3.00
2018-10-07T22:59:59.692Z,1.47
2018-10-07T23:02:28.165Z,1.30
2018-10-07T23:04:56.325Z,1.10
2018-10-07T23:07:24.512Z,1.53
2018-10-07T23:09:52.684Z,1.30
2018-10-07T23:12:20.899Z,1.60
2018-10-07T23:14:49.125Z,1.40
2018-10-07T23:17:17.304Z,1.30
2018-10-07T23:19:45.493Z,1.40
2018-10-07T23:22:13.665Z,1.37
2018-10-07T23:24:41.883Z,1.47
2018-10-07T23:27:10.062Z,1.50
2018-10-07T23:29:38.250Z,1.30
2018-10-07T23:32:06.423Z,1.43
2018-10-07T23:34:34.624Z,2.10
2018-10-07T23:37:02.803Z,1.20
2018-10-07T23:39:31.224Z,1.20
2018-10-07T23:41:59.406Z,1.90
2018-10-07T23:44:27.825Z,1.23
2018-10-07T23:46:56.008Z,1.20
2018-10-07T23:49:24.196Z,1.17
2018-10-07T23:51:52.514Z,1.20
2018-10-07T23:54:20.619Z,0.87
2018-10-07T23:56:48.805Z,1.13
2018-10-07T23:59:17.000Z,0.80
